Time;durP1;ratioP1;P1;durP2;ratioP2;P2;SDS_P1;SDS_P2;PMS_P1;PMS_P2;Temp;Humidity;BMP_temperature;BMP_pressure;BME280_temperature;BME280_humidity;BME280_pressure;Samples;Min_cycle;Max_cycle;Signal;HPM_P1;HPM_P2
2022/11/06 00:02:21;;;;;;;7.60;5.20;;;;;;;;;;108860;1268;22565;-28
2022/11/06 00:04:53;;;;;;;7.30;5.20;;;;;;;;;;108673;1268;229924;-28
2022/11/06 00:07:27;;;;;;;8.10;5.00;;;;;;;;;;108883;1267;22761;-28
2022/11/06 00:09:59;;;;;;;8.30;4.80;;;;;;;;;;108827;1268;22579;-29
2022/11/06 00:12:31;;;;;;;7.90;5.00;;;;;;;;;;108893;1268;22538;-28
2022/11/06 00:15:04;;;;;;;7.00;5.30;;;;;;;;;;108860;1267;22537;-29
2022/11/06 00:17:36;;;;;;;7.70;5.20;;;;;;;;;;108893;1268;22527;-28
2022/11/06 00:20:13;;;;;;;9.20;5.00;;;;;;;;;;108842;1267;22815;-28
2022/11/06 00:22:45;;;;;;;7.00;5.10;;;;;;;;;;108869;1264;22699;-28
2022/11/06 00:25:17;;;;;;;7.70;4.80;;;;;;;;;;108876;1263;22532;-28
2022/11/06 00:27:49;;;;;;;6.50;4.80;;;;;;;;;;108883;1264;22561;-27
2022/11/06 00:30:21;;;;;;;8.00;5.60;;;;;;;;;;108816;1267;22604;-29
2022/11/06 00:32:53;;;;;;;7.30;4.50;;;;;;;;;;108895;1268;23804;-28
2022/11/06 00:35:25;;;;;;;7.10;4.80;;;;;;;;;;108845;1269;22718;-28
2022/11/06 00:37:57;;;;;;;8.40;5.00;;;;;;;;;;108859;1269;22537;-28
2022/11/06 00:40:29;;;;;;;6.80;4.90;;;;;;;;;;108808;1268;23721;-29
2022/11/06 00:43:02;;;;;;;6.30;4.70;;;;;;;;;;108860;1264;25089;-28
2022/11/06 00:45:34;;;;;;;6.90;4.40;;;;;;;;;;108856;1268;22705;-28
2022/11/06 00:48:06;;;;;;;6.50;4.50;;;;;;;;;;108848;1260;25415;-29
2022/11/06 00:50:39;;;;;;;7.00;4.50;;;;;;;;;;108873;1262;22557;-28
2022/11/06 00:53:11;;;;;;;7.20;4.60;;;;;;;;;;108852;1269;22616;-28
2022/11/06 00:55:43;;;;;;;7.00;4.50;;;;;;;;;;108865;1263;25431;-28
2022/11/06 00:58:15;;;;;;;6.80;4.40;;;;;;;;;;108849;1262;22564;-28
2022/11/06 01:00:47;;;;;;;6.60;4.50;;;;;;;;;;108837;1262;22605;-28
2022/11/06 01:03:19;;;;;;;6.60;4.30;;;;;;;;;;108872;1262;22517;-28
2022/11/06 01:05:51;;;;;;;7.50;4.50;;;;;;;;;;108876;1268;22528;-29
2022/11/06 01:08:23;;;;;;;7.00;4.60;;;;;;;;;;108879;1262;22487;-28
2022/11/06 01:10:55;;;;;;;6.90;4.50;;;;;;;;;;108845;1263;22545;-28
2022/11/06 01:13:27;;;;;;;7.20;4.80;;;;;;;;;;108879;1263;23750;-28
2022/11/06 01:15:59;;;;;;;7.80;4.80;;;;;;;;;;108864;1262;22545;-28
2022/11/06 01:18:32;;;;;;;5.90;4.40;;;;;;;;;;108886;1269;25405;-28
2022/11/06 01:21:07;;;;;;;6.80;5.10;;;;;;;;;;108854;1262;23849;-28
2022/11/06 01:23:39;;;;;;;6.90;4.40;;;;;;;;;;108887;1263;25273;-28
2022/11/06 01:26:13;;;;;;;6.00;3.90;;;;;;;;;;108883;1262;22548;-28
2022/11/06 01:28:45;;;;;;;6.30;4.30;;;;;;;;;;108894;1268;22543;-28
2022/11/06 01:31:21;;;;;;;6.70;4.30;;;;;;;;;;108842;1263;23925;-27
2022/11/06 01:33:53;;;;;;;6.30;3.90;;;;;;;;;;108876;1263;22542;-29
2022/11/06 01:36:26;;;;;;;6.50;4.40;;;;;;;;;;108878;1262;23685;-28
2022/11/06 01:39:04;;;;;;;5.80;4.20;;;;;;;;;;108884;1264;22790;-28
2022/11/06 01:41:40;;;;;;;5.90;4.10;;;;;;;;;;108862;1263;22527;-28
2022/11/06 01:45:16;;;;;;;6.00;4.20;;;;;;;;;;108830;1262;22700;-29
2022/11/06 01:47:49;;;;;;;7.00;4.00;;;;;;;;;;108865;1267;22542;-28
2022/11/06 01:50:24;;;;;;;6.40;4.20;;;;;;;;;;108848;1264;23891;-28
2022/11/06 01:52:59;;;;;;;7.00;4.40;;;;;;;;;;108812;1263;22583;-28
2022/11/06 01:55:35;;;;;;;6.30;4.00;;;;;;;;;;108898;1262;22600;-28
2022/11/06 01:58:11;;;;;;;5.90;3.90;;;;;;;;;;108902;1263;22548;-29
2022/11/06 02:00:43;;;;;;;6.30;4.30;;;;;;;;;;108862;1262;22583;-28
2022/11/06 02:03:15;;;;;;;7.50;4.30;;;;;;;;;;108868;1262;22681;-28
2022/11/06 02:05:48;;;;;;;5.30;3.70;;;;;;;;;;108894;1262;22906;-28
2022/11/06 02:08:22;;;;;;;6.20;4.00;;;;;;;;;;108900;1255;22535;-28
2022/11/06 02:10:54;;;;;;;6.50;4.30;;;;;;;;;;108894;1259;22557;-28
2022/11/06 02:13:54;;;;;;;5.60;3.90;;;;;;;;;;108858;1262;22541;-29
2022/11/06 02:16:38;;;;;;;6.30;4.40;;;;;;;;;;108900;1262;22559;-28
2022/11/06 02:19:43;;;;;;;5.80;4.20;;;;;;;;;;108901;1268;22542;-28
2022/11/06 02:22:39;;;;;;;5.40;3.70;;;;;;;;;;108842;1256;22531;-28
2022/11/06 02:25:19;;;;;;;5.80;3.80;;;;;;;;;;108871;1262;23878;-29
2022/11/06 02:28:02;;;;;;;6.60;3.80;;;;;;;;;;108882;1268;25222;-28
2022/11/06 02:30:36;;;;;;;6.50;4.00;;;;;;;;;;108896;1262;22528;-28
2022/11/06 02:33:13;;;;;;;5.80;4.10;;;;;;;;;;108889;1264;22597;-28
2022/11/06 02:35:51;;;;;;;6.90;4.10;;;;;;;;;;108908;1263;22546;-28
2022/11/06 02:38:27;;;;;;;6.00;3.90;;;;;;;;;;108909;1262;22792;-28
2022/11/06 02:41:05;;;;;;;5.70;3.90;;;;;;;;;;108908;1262;22563;-29
2022/11/06 02:43:44;;;;;;;6.10;4.10;;;;;;;;;;108831;1263;22560;-28
2022/11/06 02:46:20;;;;;;;6.10;4.30;;;;;;;;;;108871;1262;22579;-28
2022/11/06 02:48:59;;;;;;;6.30;4.10;;;;;;;;;;108888;1262;22586;-28
2022/11/06 02:51:40;;;;;;;6.50;3.90;;;;;;;;;;108883;1262;25478;-28
2022/11/06 02:54:13;;;;;;;6.40;3.80;;;;;;;;;;108837;1266;25312;-28
2022/11/06 02:56:49;;;;;;;6.30;4.20;;;;;;;;;;108894;1262;22504;-28
2022/11/06 02:59:26;;;;;;;5.90;3.90;;;;;;;;;;108882;1262;22546;-28
2022/11/06 03:02:02;;;;;;;7.30;4.10;;;;;;;;;;108886;1262;22506;-28
2022/11/06 03:04:39;;;;;;;6.20;3.70;;;;;;;;;;108845;1262;22630;-28
2022/11/06 03:07:18;;;;;;;6.30;3.70;;;;;;;;;;108914;1262;22561;-28
2022/11/06 03:09:51;;;;;;;6.10;3.80;;;;;;;;;;108895;1262;22565;-28
2022/11/06 03:12:30;;;;;;;6.00;3.80;;;;;;;;;;108891;1262;24069;-28
2022/11/06 03:15:14;;;;;;;6.90;4.20;;;;;;;;;;108851;1262;22718;-28
2022/11/06 03:17:55;;;;;;;6.10;3.70;;;;;;;;;;108901;1262;22671;-28
2022/11/06 03:20:37;;;;;;;5.90;3.90;;;;;;;;;;108888;1262;22528;-29
2022/11/06 03:23:18;;;;;;;6.40;4.10;;;;;;;;;;108884;1262;22549;-29
2022/11/06 03:25:57;;;;;;;6.10;4.10;;;;;;;;;;108833;1262;23810;-28
2022/11/06 03:28:34;;;;;;;5.50;3.70;;;;;;;;;;108891;1262;24317;-29
2022/11/06 03:31:11;;;;;;;5.80;3.90;;;;;;;;;;108880;1263;22549;-28
2022/11/06 03:33:50;;;;;;;5.80;3.80;;;;;;;;;;108856;1262;22541;-28
2022/11/06 03:36:29;;;;;;;5.70;3.70;;;;;;;;;;108933;1262;22557;-28
2022/11/06 03:39:06;;;;;;;5.70;3.80;;;;;;;;;;108892;1267;22552;-28
2022/11/06 03:41:43;;;;;;;5.50;3.50;;;;;;;;;;108871;1262;22542;-28
2022/11/06 03:44:22;;;;;;;5.40;3.60;;;;;;;;;;108833;1262;22530;-28
2022/11/06 03:47:00;;;;;;;5.90;4.00;;;;;;;;;;108894;1262;22779;-28
2022/11/06 03:49:36;;;;;;;5.90;3.70;;;;;;;;;;108866;1256;22544;-28
2022/11/06 03:52:16;;;;;;;5.70;3.50;;;;;;;;;;108883;1259;25408;-28
2022/11/06 03:54:56;;;;;;;5.50;3.50;;;;;;;;;;108880;1262;22541;-28
2022/11/06 03:57:39;;;;;;;5.90;3.50;;;;;;;;;;108914;1260;22541;-29
2022/11/06 04:00:19;;;;;;;5.80;3.60;;;;;;;;;;108889;1259;22530;-28
2022/11/06 04:03:03;;;;;;;5.70;3.80;;;;;;;;;;108873;1262;22560;-28
2022/11/06 04:05:38;;;;;;;6.00;3.70;;;;;;;;;;108847;1262;22529;-28
2022/11/06 04:13:59;;;;;;;;;;;;;;;;;;108893;1263;25911;-29
2022/11/06 04:16:36;;;;;;;5.80;4.00;;;;;;;;;;108845;1263;22539;-28
2022/11/06 04:19:19;;;;;;;6.10;3.70;;;;;;;;;;108911;1262;23706;-28
2022/11/06 04:22:07;;;;;;;5.20;3.60;;;;;;;;;;108905;1262;25501;-28
2022/11/06 04:28:17;;;;;;;5.20;3.40;;;;;;;;;;108340;1268;22537;-28
2022/11/06 04:31:07;;;;;;;5.30;3.40;;;;;;;;;;108390;1268;22571;-28
2022/11/06 04:33:48;;;;;;;5.70;3.50;;;;;;;;;;108757;1265;22542;-28
2022/11/06 04:36:32;;;;;;;5.70;3.70;;;;;;;;;;108877;1262;22526;-28
2022/11/06 04:39:17;;;;;;;5.90;3.80;;;;;;;;;;108919;1263;22734;-28
2022/11/06 04:41:58;;;;;;;4.80;3.20;;;;;;;;;;108905;1262;25405;-28
2022/11/06 04:44:36;;;;;;;5.40;3.40;;;;;;;;;;108937;1256;23846;-29
2022/11/06 04:47:12;;;;;;;5.70;3.70;;;;;;;;;;108872;1261;22566;-28
2022/11/06 04:49:45;;;;;;;5.30;3.50;;;;;;;;;;108919;1262;23135;-28
2022/11/06 04:52:20;;;;;;;5.60;3.60;;;;;;;;;;108855;1259;22663;-28
2022/11/06 04:54:54;;;;;;;5.40;3.40;;;;;;;;;;108851;1263;22555;-28
2022/11/06 04:57:26;;;;;;;5.40;3.30;;;;;;;;;;108822;1265;22602;-28
2022/11/06 05:00:00;;;;;;;5.20;3.20;;;;;;;;;;108848;1255;22576;-28
2022/11/06 05:02:32;;;;;;;5.70;3.60;;;;;;;;;;108833;1265;22545;-29
2022/11/06 05:05:05;;;;;;;5.30;3.80;;;;;;;;;;108854;1265;22525;-29
2022/11/06 05:07:37;;;;;;;5.40;3.50;;;;;;;;;;108820;1263;22543;-28
2022/11/06 05:10:10;;;;;;;6.10;3.70;;;;;;;;;;108831;1265;22576;-29
2022/11/06 05:12:42;;;;;;;5.70;3.60;;;;;;;;;;108872;1265;22570;-28
2022/11/06 05:15:14;;;;;;;5.10;3.40;;;;;;;;;;108855;1265;22845;-28
2022/11/06 05:17:46;;;;;;;4.90;3.00;;;;;;;;;;108811;1263;22499;-28
2022/11/06 05:20:19;;;;;;;4.60;3.00;;;;;;;;;;108862;1260;23827;-28
2022/11/06 05:23:00;;;;;;;5.50;3.50;;;;;;;;;;108825;1263;22601;-28
2022/11/06 05:25:34;;;;;;;5.40;3.30;;;;;;;;;;108821;1262;25261;-28
2022/11/06 05:28:08;;;;;;;5.20;3.30;;;;;;;;;;108791;1263;22560;-28
2022/11/06 05:30:40;;;;;;;5.70;3.30;;;;;;;;;;108837;1265;22643;-28
2022/11/06 05:33:12;;;;;;;5.50;3.50;;;;;;;;;;108848;1264;22635;-28
2022/11/06 05:35:44;;;;;;;5.70;3.30;;;;;;;;;;108844;1260;22547;-28
2022/11/06 05:38:16;;;;;;;5.80;3.30;;;;;;;;;;108800;1263;22518;-29
2022/11/06 05:40:48;;;;;;;5.40;3.60;;;;;;;;;;108861;1265;25401;-28
2022/11/06 05:43:20;;;;;;;5.90;3.90;;;;;;;;;;108854;1263;22650;-28
2022/11/06 05:45:52;;;;;;;5.40;3.30;;;;;;;;;;108891;1263;22517;-28
2022/11/06 05:48:24;;;;;;;5.30;3.20;;;;;;;;;;108776;1265;22605;-28
2022/11/06 05:51:06;;;;;;;5.20;3.50;;;;;;;;;;108843;1262;22538;-28
2022/11/06 05:53:39;;;;;;;5.60;3.40;;;;;;;;;;108935;1256;22622;-28
2022/11/06 05:56:10;;;;;;;;;;;;;;;;;;108902;1262;22510;-28
2022/11/06 05:58:44;;;;;;;5.20;3.20;;;;;;;;;;108859;1255;22535;-28
2022/11/06 06:01:16;;;;;;;5.70;3.20;;;;;;;;;;108862;1262;23999;-28
2022/11/06 06:03:48;;;;;;;5.70;3.50;;;;;;;;;;108879;1262;22538;-29
2022/11/06 06:06:22;;;;;;;5.70;3.40;;;;;;;;;;108921;1262;22621;-28
2022/11/06 06:08:54;;;;;;;5.70;3.60;;;;;;;;;;108879;1262;22572;-28
2022/11/06 06:11:25;;;;;;;5.30;3.40;;;;;;;;;;108890;1262;25382;-28
2022/11/06 06:13:57;;;;;;;6.20;3.60;;;;;;;;;;108866;1262;22575;-28
2022/11/06 06:16:30;;;;;;;5.00;3.10;;;;;;;;;;108911;1262;22539;-28
2022/11/06 06:19:02;;;;;;;5.30;3.40;;;;;;;;;;108830;1256;22652;-28
2022/11/06 06:21:35;;;;;;;5.10;3.30;;;;;;;;;;108907;1262;23827;-28
2022/11/06 06:24:07;;;;;;;;;;;;;;;;;;108909;1262;23735;-28
2022/11/06 06:26:39;;;;;;;5.50;3.40;;;;;;;;;;108903;1262;22634;-29
2022/11/06 06:29:11;;;;;;;5.80;3.30;;;;;;;;;;108875;1262;22596;-28
2022/11/06 06:31:43;;;;;;;5.60;3.40;;;;;;;;;;108859;1256;22606;-29
2022/11/06 06:34:15;;;;;;;5.50;3.70;;;;;;;;;;108860;1262;23888;-29
2022/11/06 06:36:50;;;;;;;5.90;3.40;;;;;;;;;;108840;1256;23683;-28
2022/11/06 06:39:23;;;;;;;5.80;3.40;;;;;;;;;;108856;1262;22581;-28
2022/11/06 06:41:55;;;;;;;5.40;3.30;;;;;;;;;;108881;1262;22527;-29
2022/11/06 06:44:27;;;;;;;4.80;3.10;;;;;;;;;;108871;1260;22534;-29
2022/11/06 06:46:59;;;;;;;5.20;3.30;;;;;;;;;;108899;1262;22552;-28
2022/11/06 06:49:30;;;;;;;6.60;3.30;;;;;;;;;;108866;1262;25930;-29
2022/11/06 06:52:03;;;;;;;5.20;3.10;;;;;;;;;;108878;1256;23893;-28
2022/11/06 06:54:34;;;;;;;5.00;2.90;;;;;;;;;;108890;1262;22625;-28
2022/11/06 06:57:08;;;;;;;4.70;2.90;;;;;;;;;;108885;1262;22548;-29
2022/11/06 06:59:40;;;;;;;4.60;3.00;;;;;;;;;;108865;1262;22551;-29
2022/11/06 07:02:12;;;;;;;5.50;3.30;;;;;;;;;;108882;1262;25309;-29
2022/11/06 07:04:44;;;;;;;5.50;3.20;;;;;;;;;;108935;1262;22545;-29
2022/11/06 07:07:16;;;;;;;4.70;3.00;;;;;;;;;;108894;1263;22527;-29
2022/11/06 07:09:48;;;;;;;5.10;3.30;;;;;;;;;;108855;1262;25340;-28
2022/11/06 07:12:21;;;;;;;5.70;3.00;;;;;;;;;;108879;1262;22546;-28
2022/11/06 07:14:53;;;;;;;4.60;3.10;;;;;;;;;;108918;1262;22184;-28
2022/11/06 07:17:25;;;;;;;4.60;3.10;;;;;;;;;;108887;1262;22610;-28
2022/11/06 07:19:56;;;;;;;5.20;3.20;;;;;;;;;;108856;1262;22622;-29
2022/11/06 07:22:30;;;;;;;5.50;3.20;;;;;;;;;;108866;1256;22544;-28
2022/11/06 07:25:03;;;;;;;5.10;3.10;;;;;;;;;;108903;1262;22562;-29
2022/11/06 07:27:35;;;;;;;5.10;3.50;;;;;;;;;;108883;1262;22566;-28
2022/11/06 07:30:09;;;;;;;5.20;3.30;;;;;;;;;;108831;1262;22564;-28
2022/11/06 07:32:41;;;;;;;4.90;3.20;;;;;;;;;;108904;1262;22857;-28
2022/11/06 07:35:16;;;;;;;5.00;3.40;;;;;;;;;;108858;1262;22548;-29
2022/11/06 07:37:48;;;;;;;5.00;3.10;;;;;;;;;;108901;1262;22546;-28
2022/11/06 07:40:20;;;;;;;5.20;3.20;;;;;;;;;;108856;1262;22539;-28
2022/11/06 07:42:52;;;;;;;5.40;3.20;;;;;;;;;;108875;1262;22660;-29
2022/11/06 07:45:23;;;;;;;5.00;3.30;;;;;;;;;;108868;1256;22552;-28
2022/11/06 07:47:58;;;;;;;5.50;3.40;;;;;;;;;;108881;1262;22541;-28
2022/11/06 07:50:31;;;;;;;5.30;3.30;;;;;;;;;;108977;1246;22562;-27
2022/11/06 07:53:06;;;;;;;5.90;3.70;;;;;;;;;;108580;1263;23699;-27
2022/11/06 07:55:38;;;;;;;8.10;3.50;;;;;;;;;;108548;1264;25982;-29
2022/11/06 07:58:10;;;;;;;5.50;3.60;;;;;;;;;;108569;1265;25252;-28
2022/11/06 08:00:45;;;;;;;5.40;3.30;;;;;;;;;;108479;1267;23729;-27
2022/11/06 08:03:18;;;;;;;5.80;3.20;;;;;;;;;;108234;1259;339635;-27
2022/11/06 08:05:50;;;;;;;5.50;3.40;;;;;;;;;;108566;1264;25423;-27
2022/11/06 08:08:25;;;;;;;5.30;3.20;;;;;;;;;;108559;1261;25121;-27
2022/11/06 08:10:57;;;;;;;5.40;3.50;;;;;;;;;;108585;1259;22557;-27
2022/11/06 08:13:30;;;;;;;5.00;3.40;;;;;;;;;;108511;1262;23848;-27
2022/11/06 08:16:05;;;;;;;6.20;3.40;;;;;;;;;;108537;1259;25457;-27
2022/11/06 08:18:38;;;;;;;5.20;3.10;;;;;;;;;;108604;1265;22672;-27
2022/11/06 08:21:11;;;;;;;5.30;3.10;;;;;;;;;;108513;1264;22639;-26
2022/11/06 08:23:43;;;;;;;4.50;2.90;;;;;;;;;;108479;1268;22511;-27
2022/11/06 08:26:15;;;;;;;5.20;3.30;;;;;;;;;;108500;1266;22545;-27
2022/11/06 08:28:48;;;;;;;5.10;3.10;;;;;;;;;;108509;1262;22635;-27
2022/11/06 08:31:20;;;;;;;5.30;3.40;;;;;;;;;;108451;1264;22584;-26
2022/11/06 08:33:53;;;;;;;4.80;3.20;;;;;;;;;;108647;1265;22552;-28
2022/11/06 08:36:27;;;;;;;4.70;3.10;;;;;;;;;;108636;1263;22582;-27
2022/11/06 08:38:59;;;;;;;5.20;3.40;;;;;;;;;;108604;1264;25331;-28
2022/11/06 08:41:35;;;;;;;5.40;3.20;;;;;;;;;;108594;1264;22742;-28
2022/11/06 08:44:07;;;;;;;4.90;3.20;;;;;;;;;;108599;1265;22550;-27
2022/11/06 08:46:39;;;;;;;5.10;3.50;;;;;;;;;;108628;1258;25249;-28
2022/11/06 08:49:12;;;;;;;5.20;3.50;;;;;;;;;;108624;1265;22672;-27
2022/11/06 08:51:43;;;;;;;;;;;;;;;;;;108624;1265;22913;-27
2022/11/06 08:54:15;;;;;;;5.40;3.30;;;;;;;;;;108598;1262;23881;-28
2022/11/06 08:56:48;;;;;;;4.70;2.80;;;;;;;;;;108557;1265;22555;-28
2022/11/06 08:59:20;;;;;;;5.20;3.10;;;;;;;;;;108621;1265;22550;-28
2022/11/06 09:01:52;;;;;;;5.00;3.40;;;;;;;;;;108592;1265;22530;-28
2022/11/06 09:04:24;;;;;;;5.20;3.20;;;;;;;;;;108629;1260;22699;-28
2022/11/06 09:06:57;;;;;;;4.90;3.10;;;;;;;;;;108625;1259;22772;-28
2022/11/06 09:09:30;;;;;;;4.40;3.10;;;;;;;;;;108620;1264;22543;-28
2022/11/06 09:12:04;;;;;;;4.90;3.20;;;;;;;;;;108560;1265;22531;-28
2022/11/06 09:14:36;;;;;;;6.60;4.60;;;;;;;;;;108618;1265;22561;-28
2022/11/06 09:17:08;;;;;;;7.10;5.20;;;;;;;;;;108615;1265;22681;-28
2022/11/06 09:19:40;;;;;;;7.70;5.20;;;;;;;;;;108615;1264;22512;-29
2022/11/06 09:22:13;;;;;;;7.40;6.60;;;;;;;;;;108596;1264;22548;-28
2022/11/06 09:24:45;;;;;;;8.10;6.40;;;;;;;;;;108590;1265;22588;-28
2022/11/06 09:27:17;;;;;;;9.40;8.40;;;;;;;;;;108625;1265;22486;-28
2022/11/06 09:29:49;;;;;;;8.60;7.50;;;;;;;;;;108627;1264;22573;-28
2022/11/06 09:32:22;;;;;;;8.20;7.40;;;;;;;;;;108593;1262;22529;-28
2022/11/06 09:34:53;;;;;;;;;;;;;;;;;;108644;1262;23818;-28
2022/11/06 09:37:25;;;;;;;8.50;7.00;;;;;;;;;;108619;1264;22540;-28
2022/11/06 09:39:57;;;;;;;9.40;7.00;;;;;;;;;;108616;1264;25929;-28
2022/11/06 09:42:43;;;;;;;8.10;6.30;;;;;;;;;;108601;1262;22535;-29
2022/11/06 09:45:21;;;;;;;9.00;6.70;;;;;;;;;;108585;1265;22544;-28
2022/11/06 09:48:02;;;;;;;7.30;6.20;;;;;;;;;;108613;1265;22566;-28
2022/11/06 09:50:39;;;;;;;7.20;6.10;;;;;;;;;;108647;1259;22547;-28
2022/11/06 09:53:20;;;;;;;7.80;6.50;;;;;;;;;;108586;1259;25397;-28
2022/11/06 09:55:52;;;;;;;8.90;6.10;;;;;;;;;;108599;1262;22678;-28
2022/11/06 09:58:28;;;;;;;7.70;6.30;;;;;;;;;;108592;1265;23852;-28
2022/11/06 10:01:06;;;;;;;7.90;6.50;;;;;;;;;;108607;1264;22789;-28
2022/11/06 10:03:45;;;;;;;7.90;6.30;;;;;;;;;;108585;1264;25258;-28
2022/11/06 10:06:18;;;;;;;7.60;6.30;;;;;;;;;;108624;1259;22547;-28
2022/11/06 10:08:52;;;;;;;8.00;6.30;;;;;;;;;;108601;1264;22540;-28
2022/11/06 10:11:46;;;;;;;7.50;6.30;;;;;;;;;;108623;1264;23035;-28
2022/11/06 10:14:34;;;;;;;7.40;5.90;;;;;;;;;;108579;1258;22553;-28
2022/11/06 10:17:18;;;;;;;7.90;6.10;;;;;;;;;;108613;1258;22489;-28
2022/11/06 10:19:59;;;;;;;8.70;6.30;;;;;;;;;;108616;1263;25436;-28
2022/11/06 10:22:41;;;;;;;7.90;6.30;;;;;;;;;;108624;1265;22673;-28
2022/11/06 10:25:24;;;;;;;8.00;6.10;;;;;;;;;;108584;1264;22544;-28
2022/11/06 10:28:08;;;;;;;8.10;6.40;;;;;;;;;;108612;1265;22593;-28
2022/11/06 10:30:49;;;;;;;8.90;6.60;;;;;;;;;;108605;1265;22567;-28
2022/11/06 10:33:34;;;;;;;8.20;6.50;;;;;;;;;;108568;1264;22644;-28
2022/11/06 10:36:11;;;;;;;7.90;6.60;;;;;;;;;;108568;1264;24055;-28
2022/11/06 10:38:49;;;;;;;9.00;6.70;;;;;;;;;;108598;1264;22709;-28
2022/11/06 10:41:26;;;;;;;8.80;6.30;;;;;;;;;;108667;1265;22544;-28
2022/11/06 10:44:06;;;;;;;7.80;6.10;;;;;;;;;;108421;1262;22572;-28
2022/11/06 10:46:41;;;;;;;8.30;6.50;;;;;;;;;;108610;1265;25398;-28
2022/11/06 10:49:23;;;;;;;7.70;6.00;;;;;;;;;;108650;1264;22542;-28
2022/11/06 10:52:24;;;;;;;7.90;5.70;;;;;;;;;;108667;1265;25207;-28
2022/11/06 10:55:19;;;;;;;9.60;6.40;;;;;;;;;;108595;1264;22559;-28
2022/11/06 10:57:57;;;;;;;8.40;6.40;;;;;;;;;;108593;1264;22564;-29
2022/11/06 11:00:30;;;;;;;8.30;6.50;;;;;;;;;;108633;1265;22633;-28
2022/11/06 11:03:05;;;;;;;9.20;6.60;;;;;;;;;;108635;1265;22533;-28
2022/11/06 11:05:41;;;;;;;8.30;5.90;;;;;;;;;;108614;1264;25244;-28
2022/11/06 11:08:40;;;;;;;8.10;6.30;;;;;;;;;;108628;1265;22544;-28
2022/11/06 11:11:28;;;;;;;7.70;5.90;;;;;;;;;;108604;1264;22697;-31
2022/11/06 11:14:27;;;;;;;8.40;6.10;;;;;;;;;;108582;1265;22569;-31
2022/11/06 11:17:02;;;;;;;8.90;6.10;;;;;;;;;;108604;1265;22553;-32
2022/11/06 11:19:40;;;;;;;7.70;6.10;;;;;;;;;;108644;1265;22745;-31
2022/11/06 11:22:24;;;;;;;7.50;5.60;;;;;;;;;;108631;1265;22539;-30
2022/11/06 11:25:07;;;;;;;8.10;5.70;;;;;;;;;;108565;1265;22681;-28
2022/11/06 11:27:44;;;;;;;8.10;6.00;;;;;;;;;;108642;1265;25921;-28
2022/11/06 11:30:28;;;;;;;8.20;6.20;;;;;;;;;;108586;1258;22596;-28
2022/11/06 11:33:00;;;;;;;8.30;6.00;;;;;;;;;;108589;1265;22634;-28
2022/11/06 11:35:37;;;;;;;6.90;5.60;;;;;;;;;;108582;1264;22609;-28
2022/11/06 11:38:17;;;;;;;7.20;5.80;;;;;;;;;;108636;1265;24324;-28
2022/11/06 11:40:50;;;;;;;7.60;5.90;;;;;;;;;;108611;1262;22499;-31
2022/11/06 11:43:31;;;;;;;7.80;5.70;;;;;;;;;;108570;1265;23894;-32
2022/11/06 11:46:21;;;;;;;7.30;6.00;;;;;;;;;;108545;1265;22614;-31
2022/11/06 11:48:56;;;;;;;8.40;6.10;;;;;;;;;;108564;1265;22496;-30
2022/11/06 11:51:35;;;;;;;7.30;6.00;;;;;;;;;;108550;1264;22552;-31
2022/11/06 11:54:19;;;;;;;7.70;5.50;;;;;;;;;;108612;1265;22562;-30
2022/11/06 11:56:54;;;;;;;7.50;5.60;;;;;;;;;;108559;1264;22551;-30
2022/11/06 11:59:31;;;;;;;7.00;5.70;;;;;;;;;;108598;1261;22551;-31
2022/11/06 12:02:14;;;;;;;7.20;5.30;;;;;;;;;;108516;1264;22592;-31
2022/11/06 12:04:52;;;;;;;7.90;6.10;;;;;;;;;;108587;1265;22596;-31
2022/11/06 12:07:29;;;;;;;6.80;5.60;;;;;;;;;;108559;1265;22576;-30
2022/11/06 12:10:13;;;;;;;7.70;5.80;;;;;;;;;;108617;1264;22655;-30
2022/11/06 12:12:52;;;;;;;7.60;5.80;;;;;;;;;;108588;1265;22595;-30
2022/11/06 12:15:29;;;;;;;7.90;6.20;;;;;;;;;;108598;1262;22524;-31
2022/11/06 12:18:09;;;;;;;7.60;6.40;;;;;;;;;;108703;1265;22576;-30
2022/11/06 12:20:52;;;;;;;7.40;6.20;;;;;;;;;;108650;1264;22547;-28
2022/11/06 12:23:31;;;;;;;8.00;6.60;;;;;;;;;;108620;1265;22550;-28
2022/11/06 12:26:09;;;;;;;7.70;6.40;;;;;;;;;;108540;1264;25328;-28
2022/11/06 12:28:44;;;;;;;9.10;6.70;;;;;;;;;;108604;1259;25219;-28
2022/11/06 12:31:36;;;;;;;8.80;6.40;;;;;;;;;;108605;1265;25475;-28
2022/11/06 12:34:13;;;;;;;8.50;6.40;;;;;;;;;;108631;1262;23322;-31
2022/11/06 12:36:59;;;;;;;7.90;6.50;;;;;;;;;;108579;1264;22533;-31
2022/11/06 12:39:34;;;;;;;8.50;6.10;;;;;;;;;;108592;1265;22731;-31
2022/11/06 12:42:10;;;;;;;7.90;6.70;;;;;;;;;;108613;1265;23809;-31
2022/11/06 12:44:42;;;;;;;8.10;6.70;;;;;;;;;;108586;1265;22565;-28
2022/11/06 12:47:32;;;;;;;8.20;6.50;;;;;;;;;;108584;1265;22553;-28
2022/11/06 12:50:29;;;;;;;7.60;6.40;;;;;;;;;;108601;1262;22668;-30
2022/11/06 12:53:20;;;;;;;8.40;6.40;;;;;;;;;;108630;1259;22665;-30
2022/11/06 12:55:58;;;;;;;7.70;6.70;;;;;;;;;;108616;1259;22541;-30
2022/11/06 12:59:01;;;;;;;7.90;7.00;;;;;;;;;;108528;1265;22673;-31
2022/11/06 13:01:57;;;;;;;8.80;6.60;;;;;;;;;;108607;1264;22581;-30
2022/11/06 13:04:43;;;;;;;8.30;7.10;;;;;;;;;;108669;1261;22537;-31
2022/11/06 13:07:58;;;;;;;8.80;6.70;;;;;;;;;;108604;1264;22549;-31
2022/11/06 13:10:42;;;;;;;8.00;6.90;;;;;;;;;;108620;1265;22575;-28
2022/11/06 13:13:52;;;;;;;8.50;7.20;;;;;;;;;;108637;1264;25287;-28
2022/11/06 13:16:36;;;;;;;8.10;7.30;;;;;;;;;;108613;1265;22524;-29
2022/11/06 13:19:18;;;;;;;8.90;7.10;;;;;;;;;;108590;1265;22535;-31
2022/11/06 13:22:14;;;;;;;8.20;6.70;;;;;;;;;;108654;1265;22602;-31
2022/11/06 13:24:56;;;;;;;8.10;6.80;;;;;;;;;;108654;1264;22539;-31
2022/11/06 13:27:37;;;;;;;8.10;6.60;;;;;;;;;;108636;1264;25425;-31
2022/11/06 13:30:18;;;;;;;7.50;6.70;;;;;;;;;;108682;1264;22586;-32
2022/11/06 13:33:07;;;;;;;8.50;6.80;;;;;;;;;;108610;1262;22569;-31
2022/11/06 13:35:43;;;;;;;8.20;7.30;;;;;;;;;;108636;1265;23868;-31
2022/11/06 13:38:24;;;;;;;7.80;7.00;;;;;;;;;;108602;1262;22663;-31
2022/11/06 13:41:00;;;;;;;8.40;6.90;;;;;;;;;;108595;1258;24026;-29
2022/11/06 13:43:39;;;;;;;7.80;6.40;;;;;;;;;;108605;1264;25757;-29
2022/11/06 13:46:24;;;;;;;8.50;7.10;;;;;;;;;;108624;1265;24205;-29
2022/11/06 13:49:11;;;;;;;8.10;6.20;;;;;;;;;;108590;1265;25354;-28
2022/11/06 13:51:52;;;;;;;8.30;6.70;;;;;;;;;;108634;1264;22540;-29
2022/11/06 13:54:45;;;;;;;7.30;6.50;;;;;;;;;;108582;1259;22653;-30
2022/11/06 13:57:49;;;;;;;7.50;6.30;;;;;;;;;;108614;1265;22121;-30
2022/11/06 14:00:24;;;;;;;7.90;6.40;;;;;;;;;;108700;1264;25403;-28
2022/11/06 14:03:41;;;;;;;7.10;6.30;;;;;;;;;;108659;1265;22742;-28
2022/11/06 14:06:22;;;;;;;8.10;6.70;;;;;;;;;;108615;1265;22579;-29
2022/11/06 14:09:00;;;;;;;8.10;6.40;;;;;;;;;;108599;1258;22567;-30
2022/11/06 14:11:35;;;;;;;7.80;6.20;;;;;;;;;;108605;1265;22590;-30
2022/11/06 14:14:11;;;;;;;7.90;6.20;;;;;;;;;;108599;1265;22557;-30
2022/11/06 14:16:44;;;;;;;7.10;5.80;;;;;;;;;;108625;1265;22528;-30
2022/11/06 14:19:25;;;;;;;;;;;;;;;;;;108601;1265;22536;-30
2022/11/06 14:22:28;;;;;;;6.90;5.90;;;;;;;;;;108615;1264;22629;-30
2022/11/06 14:25:00;;;;;;;7.80;6.40;;;;;;;;;;108597;1259;22545;-28
2022/11/06 14:28:08;;;;;;;7.30;6.10;;;;;;;;;;108615;1265;22738;-28
2022/11/06 14:30:48;;;;;;;7.50;5.90;;;;;;;;;;108600;1265;22579;-28
2022/11/06 14:33:59;;;;;;;7.30;6.30;;;;;;;;;;108598;1265;22559;-28
2022/11/06 14:36:37;;;;;;;8.00;5.90;;;;;;;;;;108416;1268;22619;-28
2022/11/06 14:39:14;;;;;;;7.50;6.10;;;;;;;;;;108578;1265;22572;-28
2022/11/06 14:42:00;;;;;;;7.20;5.70;;;;;;;;;;108633;1259;22634;-28
2022/11/06 14:44:44;;;;;;;7.30;6.10;;;;;;;;;;108603;1262;22593;-28
2022/11/06 14:47:34;;;;;;;7.40;5.80;;;;;;;;;;108620;1264;22529;-28
2022/11/06 14:50:24;;;;;;;7.60;5.90;;;;;;;;;;108569;1265;22572;-30
2022/11/06 14:53:01;;;;;;;7.20;5.70;;;;;;;;;;108604;1264;25312;-29
2022/11/06 14:55:40;;;;;;;7.70;6.30;;;;;;;;;;108619;1265;22540;-28
2022/11/06 14:58:21;;;;;;;8.00;6.20;;;;;;;;;;108615;1264;22567;-28
2022/11/06 15:00:56;;;;;;;8.20;5.80;;;;;;;;;;108550;1265;25353;-28
2022/11/06 15:03:51;;;;;;;7.00;5.70;;;;;;;;;;108601;1264;25274;-29
2022/11/06 15:06:44;;;;;;;7.10;5.90;;;;;;;;;;108654;1264;22550;-30
2022/11/06 15:09:47;;;;;;;7.50;5.70;;;;;;;;;;108642;1265;25294;-30
2022/11/06 15:12:19;;;;;;;7.20;5.80;;;;;;;;;;108478;1266;22651;-29
2022/11/06 15:15:07;;;;;;;6.40;5.30;;;;;;;;;;108474;1267;24179;-29
2022/11/06 15:17:40;;;;;;;7.30;5.50;;;;;;;;;;108463;1266;23060;-29
2022/11/06 15:20:27;;;;;;;7.20;5.40;;;;;;;;;;108469;1268;24151;-29
2022/11/06 15:23:11;;;;;;;8.40;5.60;;;;;;;;;;108615;1258;22543;-30
2022/11/06 15:25:55;;;;;;;7.50;5.60;;;;;;;;;;108608;1265;23859;-30
2022/11/06 15:28:31;;;;;;;8.20;5.70;;;;;;;;;;108587;1265;25263;-29
2022/11/06 15:31:07;;;;;;;9.40;5.90;;;;;;;;;;108572;1265;22549;-29
2022/11/06 15:33:54;;;;;;;9.50;6.20;;;;;;;;;;108615;1265;22601;-31
2022/11/06 15:36:27;;;;;;;8.40;6.10;;;;;;;;;;108640;1265;25214;-31
2022/11/06 15:39:00;;;;;;;9.80;6.50;;;;;;;;;;108636;1265;25402;-31
2022/11/06 15:41:32;;;;;;;12.70;6.50;;;;;;;;;;108582;1265;22534;-31
2022/11/06 15:44:06;;;;;;;11.30;7.10;;;;;;;;;;108615;1264;25267;-31